Saturday, August 18, 2018, 1:53 PM EDT
Back to Local

KMRB, Martinsburg Eastern Wv Reg

Location: Martinsburg, WV, United States Lat: 39.4
Local Time: 1:53 PM EDT (17:53 GMT) Lon: -77.983
Time Zone: US/Eastern Elev: 557 ft

Show me the last for .
Show Decoded

2018-08-18 13:18 METAR KMRB 181718Z 27009KT 10SM SKC 27/22 A2988 =
2018-08-18 11:56 METAR KMRB 181556Z 27009KT 10SM SKC 28/23 A2990 =
2018-08-18 10:54 METAR KMRB 181454Z 22005KT 10SM SKC 26/22 A2992 =
2018-08-18 09:55 METAR KMRB 181355Z 20006KT 10SM SKC 24/22 A2992 =
2018-08-18 08:56 METAR KMRB 181256Z 21004KT 8SM FEW038 FEW100 23/22 A2994 =
2018-08-18 04:53 METAR KMRB 180853Z AUTO 19003KT 9SM CLR 22/21 A2992 RMK AO2 SLP128 60003
                 T02170211 56014 =
2018-08-18 03:53 METAR KMRB 180753Z AUTO 20003KT 9SM CLR 22/22 A2993 RMK AO2 SLP130 P0001
                 T02220217 =
2018-08-18 02:53 METAR KMRB 180653Z AUTO 00000KT 9SM FEW100 22/22 A2994 RMK AO2 RAE49 SLP133
                 P0002 T02220217 =
2018-08-18 01:53 METAR KMRB 180553Z AUTO 20005KT 8SM -RA FEW110 22/22 A2997 RMK AO2 LTG DSNT SE
                 AND S RAE0458B21 SLP142 P0002 60018 T02220217 10228 20222 53002 =
2018-08-18 00:53 METAR KMRB 180453Z AUTO 19005KT 9SM -RA SCT090 22/22 A2996 RMK AO2 RAB47 SLP140
                 P0000 T02220217 403220217 =
2018-08-17 23:53 METAR KMRB 180353Z AUTO 17004KT 8SM BKN110 23/22 A2996 RMK AO2 RAE39 SLP138
                 P0005 T02280222 =
2018-08-17 23:00 METAR KMRB 180300Z AUTO 4SM -RA BR FEW049 BKN070 OVC110 23/22 A2998 RMK AO2
                 P0000 T02280222 =
2018-08-17 22:53 METAR KMRB 180253Z AUTO VRB03KT 2 1/2SM RA BR FEW049 BKN070 OVC090 23/22 A2996
                 RMK AO2 VIS 1 1/2V4 RAB03E20B40 SLP141 P0011 60011 T02280217 58001 =
2018-08-17 22:21 METAR KMRB 180221Z 20005KT 10SM FEW041 SCT055 BKN070 23/22 A2997 RMK AO2
                 RAB03E20 P0006 T02280217 =
2018-08-17 22:13 METAR KMRB 180213Z 18004KT 2SM -RA BR SCT040 BKN060 BKN080 23/22 A2997 RMK AO2
                 LTG DSNT NE RAB03 P0006 T02280217 =
2018-08-17 21:53 METAR KMRB 180153Z 18003KT 10SM SCT080 BKN110 23/22 A2997 RMK AO2 LTG DSNT E
                 SLP145 T02280217 =
2018-08-17 20:53 METAR KMRB 180053Z 24003KT 10SM BKN060 23/22 A2997 RMK AO2 SLP143 T02280217 =
2018-08-17 19:53 METAR KMRB 172353Z VRB04KT 10SM CLR 23/22 A2996 RMK AO2 SLP142 60052 T02280217
                 10322 20228 56007 =
2018-08-17 18:53 METAR KMRB 172253Z 20005KT 10SM CLR 23/21 A2997 RMK AO2 RAE01 SLP144 P0000
                 T02280211 =
2018-08-17 17:53 METAR KMRB 172153Z 21005KT 10SM -RA SCT095 SCT110 23/21 A2998 RMK AO2 LTG DSNT N
                 AND SE AND S RAB15 SLP148 P0005 T02280211 =
2018-08-17 17:19 METAR KMRB 172119Z 19008KT 9SM VCTS -RA SCT110 25/21 A2998 RMK AO2 LTG DSNT N
                 AND S AND NW RAB15 P0000 T02500211 =
2018-08-17 16:53 METAR KMRB 172053Z AUTO 21006KT 10SM CLR 26/22 A2999 RMK AO2 LTG DSNT ALQDS
                 TSE08 SLP149 60047 T02610222 55006 =
2018-08-17 16:24 METAR KMRB 172024Z AUTO 22006KT 10SM FEW110 27/22 A2998 RMK AO2 LTG DSNT ALQDS
                 TSE08 T02670222 =
2018-08-17 16:14 METAR KMRB 172014Z AUTO 21005KT 10SM VCTS FEW100 26/22 A2998 RMK AO2 LTG DSNT
                 ALQDS TSE08 T02610222 =
2018-08-17 15:53 METAR KMRB 171953Z AUTO VRB03KT 10SM TS FEW039 SCT095 BKN120 26/23 A2998 RMK AO2
                 PK WND 29054/1922 WSHFT 1917 LTG DSNT ALQDS RAB21E49 TSB14 SLP147 P0047
                 T02560228 =
2018-08-17 15:44 METAR KMRB 171944Z AUTO 08003KT 8SM -TSRA FEW027 SCT045 BKN110 24/22 A2997 RMK
                 AO2 PK WND 29054/1922 WSHFT 1917 LTG DSNT E-SW RAB21 TSB14 P0047 T02440217 =
2018-08-17 15:37 METAR KMRB 171937Z AUTO VRB03G21KT 2 1/2SM -TSRA SCT038 BKN080 BKN110 25/21
                 A2998 RMK AO2 PK WND 29054/1922 WSHFT 1917 LTG DSNT SW RAB21 TSB14 P0047
                 T02500206 =
2018-08-17 15:33 METAR KMRB 171933Z 27010G48KT 240V300 1/2SM TSRA BKN039 BKN085 BKN110 25/20
                 A2998 RMK AO2 PK WND 29054/1922 WSHFT 1917 LTG DSNT SW RAB21 TSB14 P0047
                 T02500200 =
2018-08-17 15:24 METAR KMRB 171924Z 29035G54KT 1/4SM +TSRA SQ FEW025 SCT046 BKN080 24/21 A3001
                 RMK AO2 PK WND 29054/1922 LTG DSNT SW AND W RAB21 TSB14 P0036 T02440211 =
2018-08-17 15:22 METAR KMRB 171922Z 27034G54KT 1/2SM +TSRA FEW032 SCT046 BKN080 26/22 A3002 RMK
                 AO2 PK WND 29054/1922 LTG DSNT SW AND W RAB21 TSB14 PRESRR P0022 T02610217 =
2018-08-17 15:20 METAR KMRB 171920Z 24021G27KT 3SM TS HZ SCT046 SCT085 BKN110 28/22 A3002 RMK AO2
                 PK WND 25027/1920 LTG DSNT SW AND W TSB14 PRESRR T02830217 =
2018-08-17 15:06 METAR KMRB 171906Z 18004KT 10SM VCTS FEW080 BKN110 30/23 A2999 RMK AO2 LTG DSNT
                 SW AND W T03000228 =
2018-08-17 14:53 METAR KMRB 171853Z 19005KT 10SM BKN110 31/22 A2999 RMK AO2 LTG DSNT SW AND W
                 SLP148 T03060217 =

Support USWX by starting your Amazon purchase here.